WUK795 LRBC-EGGW

Flight info

Callsign WUK795
Flight time 3h 26m
Altitude 36000
Route REDKU DCT MIKVI DCT ABULI DCT TEPNI DCT MAKAL DCT LALUK DCT WRB DCT LARAS DCT NOGRO M40 RINIS
Aircraft A21N/M-SDE2E3FGHIRWXY/LB1

Departure

Time 2026-04-07 12:39
Airport Bacău George Enescu International Airport (LRBC)

Arrival

Time 2026-04-07 16:05
Airport London Luton Airport (EGGW)
Time Latitude Longitude Altitude Speed Heading
2026-04-07 12:18 46.53155 26.90989 629 ft 0 kts 74°
2026-04-07 12:28 46.53155 26.90988 617 ft 1 kts 74°
2026-04-07 12:29 46.53148 26.90937 622 ft 3 kts 89°
2026-04-07 12:29 46.53149 26.90909 627 ft 3 kts 105°
2026-04-07 12:29 46.53157 26.90884 626 ft 3 kts 140°
2026-04-07 12:29 46.53166 26.90875 629 ft 0 kts 165°
2026-04-07 12:32 46.53124 26.90891 629 ft 10 kts 165°
2026-04-07 12:32 46.53057 26.90919 630 ft 10 kts 164°
2026-04-07 12:32 46.52990 26.90944 628 ft 10 kts 166°
2026-04-07 12:33 46.52923 26.90969 624 ft 10 kts 166°
2026-04-07 12:33 46.52858 26.90994 622 ft 10 kts 165°
2026-04-07 12:33 46.52797 26.91000 619 ft 8 kts 210°
2026-04-07 12:33 46.52760 26.90938 624 ft 7 kts 248°
2026-04-07 12:34 46.52756 26.90882 619 ft 6 kts 263°
2026-04-07 12:34 46.52734 26.90824 626 ft 7 kts 214°
2026-04-07 12:34 46.52667 26.90828 628 ft 15 kts 164°
2026-04-07 12:34 46.52529 26.90883 625 ft 25 kts 165°
2026-04-07 12:35 46.52366 26.90947 631 ft 24 kts 164°
2026-04-07 12:35 46.52203 26.91012 630 ft 24 kts 165°
2026-04-07 12:35 46.52046 26.91073 621 ft 23 kts 165°
2026-04-07 12:35 46.51893 26.91133 625 ft 23 kts 165°
2026-04-07 12:36 46.51739 26.91194 628 ft 22 kts 165°
2026-04-07 12:36 46.51592 26.91252 624 ft 22 kts 165°
2026-04-07 12:36 46.51451 26.91307 630 ft 21 kts 165°
2026-04-07 12:36 46.51311 26.91362 630 ft 21 kts 165°
2026-04-07 12:37 46.51184 26.91454 627 ft 19 kts 134°
2026-04-07 12:37 46.51112 26.91465 623 ft 3 kts 253°
2026-04-07 12:37 46.51116 26.91452 628 ft 1 kts 300°
2026-04-07 12:37 46.51132 26.91434 619 ft 5 kts 334°
2026-04-07 12:38 46.51187 26.91411 629 ft 15 kts 345°
2026-04-07 12:38 46.51448 26.91309 628 ft 66 kts 345°
2026-04-07 12:38 46.52083 26.91059 626 ft 124 kts 345°
2026-04-07 12:38 46.53083 26.90681 689 ft 161 kts 347°
2026-04-07 12:39 46.54122 26.90302 1387 ft 147 kts 345°
2026-04-07 12:39 46.55057 26.89875 2132 ft 138 kts 323°
2026-04-07 12:39 46.55559 26.88617 2468 ft 164 kts 282°
2026-04-07 12:39 46.55299 26.86854 2744 ft 197 kts 251°
2026-04-07 12:40 46.54582 26.85057 3220 ft 212 kts 244°
2026-04-07 12:40 46.53783 26.83255 3852 ft 216 kts 244°
2026-04-07 12:40 46.52959 26.81349 4336 ft 229 kts 245°
2026-04-07 12:40 46.52112 26.79331 4990 ft 236 kts 246°
2026-04-07 12:41 46.51376 26.77206 5775 ft 234 kts 256°
2026-04-07 12:41 46.50988 26.74934 6490 ft 235 kts 268°
2026-04-07 12:41 46.50883 26.72545 7043 ft 245 kts 272°
2026-04-07 12:41 46.50853 26.70036 7939 ft 245 kts 273°
2026-04-07 12:42 46.50832 26.67589 8813 ft 247 kts 274°
2026-04-07 12:42 46.50806 26.65074 9608 ft 254 kts 273°
2026-04-07 12:42 46.50776 26.62476 10271 ft 262 kts 273°
2026-04-07 12:42 46.50743 26.59731 10616 ft 283 kts 273°
2026-04-07 12:43 46.50706 26.56762 10907 ft 305 kts 273°
2026-04-07 12:43 46.50665 26.53577 11201 ft 326 kts 273°
2026-04-07 12:43 46.50618 26.50212 11678 ft 338 kts 273°
2026-04-07 12:43 46.50553 26.46764 12310 ft 347 kts 274°
2026-04-07 12:44 46.50486 26.43248 13116 ft 348 kts 274°
2026-04-07 12:44 46.50416 26.39726 13880 ft 351 kts 275°
2026-04-07 12:44 46.50343 26.36174 14643 ft 352 kts 275°
2026-04-07 12:44 46.50268 26.32644 15516 ft 349 kts 276°
2026-04-07 12:45 46.50194 26.29141 16371 ft 344 kts 277°
2026-04-07 12:45 46.50122 26.25669 17140 ft 345 kts 277°
2026-04-07 12:45 46.50065 26.22181 17802 ft 346 kts 278°
2026-04-07 12:45 46.50027 26.18691 18444 ft 344 kts 281°
2026-04-07 12:46 46.50194 26.15256 18993 ft 340 kts 285°
2026-04-07 12:46 46.50667 26.11895 19376 ft 340 kts 292°
2026-04-07 12:46 46.51488 26.08700 19845 ft 337 kts 299°
2026-04-07 12:46 46.52156 26.06662 20164 ft 338 kts 301°
2026-04-07 12:47 46.53253 26.03637 20610 ft 340 kts 303°
2026-04-07 12:47 46.54417 26.00638 21050 ft 342 kts 303°
2026-04-07 12:47 46.56004 25.96654 21709 ft 345 kts 303°
2026-04-07 12:47 46.57215 25.93618 22169 ft 349 kts 304°
2026-04-07 12:48 46.58428 25.90556 22657 ft 351 kts 303°
2026-04-07 12:48 46.59248 25.88468 22903 ft 354 kts 303°
2026-04-07 12:48 46.60470 25.85337 23314 ft 357 kts 303°
2026-04-07 12:48 46.61695 25.82178 23772 ft 360 kts 303°
2026-04-07 12:49 46.62924 25.78996 24142 ft 361 kts 303°
2026-04-07 12:49 46.64157 25.75799 24528 ft 363 kts 303°
2026-04-07 12:49 46.65391 25.72592 24889 ft 364 kts 303°
2026-04-07 12:49 46.66635 25.69362 25205 ft 366 kts 303°
2026-04-07 12:50 46.67879 25.66118 25587 ft 368 kts 303°
2026-04-07 12:50 46.69129 25.62861 26025 ft 367 kts 303°
2026-04-07 12:50 46.70352 25.59665 26589 ft 364 kts 303°
2026-04-07 12:50 46.71579 25.56456 27025 ft 362 kts 303°
2026-04-07 12:51 46.72810 25.53237 27312 ft 365 kts 303°
2026-04-07 12:51 46.74043 25.50012 27729 ft 364 kts 303°
2026-04-07 12:51 46.75268 25.46799 28200 ft 361 kts 303°
2026-04-07 12:51 46.76485 25.43604 28675 ft 359 kts 303°
2026-04-07 12:52 46.77693 25.40430 29071 ft 358 kts 303°
2026-04-07 12:52 46.78898 25.37261 29456 ft 356 kts 303°
2026-04-07 12:52 46.80099 25.34100 29871 ft 355 kts 303°
2026-04-07 12:52 46.81288 25.30963 30260 ft 352 kts 304°
2026-04-07 12:53 46.82475 25.27834 30516 ft 352 kts 304°
2026-04-07 12:53 46.83660 25.24704 30749 ft 353 kts 304°
2026-04-07 12:53 46.84850 25.21563 30875 ft 355 kts 304°
2026-04-07 12:53 46.86046 25.18402 31057 ft 356 kts 304°
2026-04-07 12:54 46.87239 25.15237 31345 ft 355 kts 304°
2026-04-07 12:54 46.88427 25.12079 31634 ft 354 kts 304°
2026-04-07 12:54 46.89612 25.08929 31894 ft 353 kts 304°
2026-04-07 12:54 46.90795 25.05785 32124 ft 353 kts 304°
2026-04-07 12:55 46.91976 25.02641 32355 ft 352 kts 304°
2026-04-07 12:55 46.93155 24.99497 32563 ft 353 kts 304°
2026-04-07 12:55 46.94334 24.96348 32818 ft 352 kts 304°
2026-04-07 12:55 46.95508 24.93207 33050 ft 352 kts 304°
2026-04-07 12:56 46.96682 24.90066 33271 ft 351 kts 304°
2026-04-07 12:56 46.97852 24.86931 33482 ft 351 kts 304°
2026-04-07 12:56 46.99014 24.83803 33872 ft 346 kts 304°
2026-04-07 12:56 47.00158 24.80721 34134 ft 344 kts 305°
2026-04-07 12:57 47.01304 24.77642 34151 ft 345 kts 305°
2026-04-07 12:57 47.03611 24.71442 34367 ft 347 kts 304°
2026-04-07 12:57 47.04750 24.68373 34482 ft 348 kts 304°
2026-04-07 12:58 47.05905 24.65256 34593 ft 348 kts 304°
2026-04-07 12:58 47.07063 24.62127 34696 ft 349 kts 304°
2026-04-07 12:58 47.08222 24.58990 34796 ft 350 kts 304°
2026-04-07 12:59 47.10550 24.52678 34903 ft 353 kts 304°
2026-04-07 12:59 47.11719 24.49500 35019 ft 353 kts 304°
2026-04-07 12:59 47.12887 24.46324 35114 ft 354 kts 304°
2026-04-07 13:00 47.15229 24.39940 35287 ft 356 kts 304°
2026-04-07 13:00 47.16412 24.36715 35034 ft 361 kts 304°
2026-04-07 13:00 47.17599 24.33473 34772 ft 358 kts 304°
2026-04-07 13:00 47.18771 24.30260 34536 ft 356 kts 304°
2026-04-07 13:01 47.19936 24.27060 34294 ft 354 kts 304°
2026-04-07 13:01 47.21096 24.23873 34053 ft 353 kts 304°
2026-04-07 13:01 47.22256 24.20686 33743 ft 354 kts 304°
2026-04-07 13:01 47.23419 24.17493 33475 ft 355 kts 304°
2026-04-07 13:02 47.24585 24.14287 33196 ft 356 kts 304°
2026-04-07 13:02 47.25754 24.11069 32924 ft 356 kts 303°
2026-04-07 13:02 47.26920 24.07851 32663 ft 357 kts 303°
2026-04-07 13:02 47.28086 24.04628 32402 ft 357 kts 303°
2026-04-07 13:03 47.29254 24.01399 32137 ft 357 kts 303°
2026-04-07 13:03 47.30406 23.98208 31880 ft 358 kts 303°
2026-04-07 13:03 47.31589 23.94928 31626 ft 358 kts 303°
2026-04-07 13:03 47.32758 23.91681 31368 ft 359 kts 303°
2026-04-07 13:04 47.33928 23.88431 31066 ft 360 kts 303°
2026-04-07 13:04 47.35107 23.85153 30822 ft 363 kts 303°
2026-04-07 13:04 47.36291 23.81856 30568 ft 365 kts 303°
2026-04-07 13:04 47.37479 23.78544 30335 ft 366 kts 303°
2026-04-07 13:05 47.38649 23.75270 30080 ft 366 kts 302°
2026-04-07 13:05 47.39836 23.71946 29803 ft 366 kts 302°
2026-04-07 13:05 47.41024 23.68618 29514 ft 367 kts 302°
2026-04-07 13:05 47.42213 23.65280 29219 ft 368 kts 302°
2026-04-07 13:06 47.43407 23.61926 28950 ft 369 kts 302°
2026-04-07 13:06 47.44602 23.58567 28677 ft 370 kts 302°
2026-04-07 13:06 47.45802 23.55191 28392 ft 371 kts 302°
2026-04-07 13:06 47.47006 23.51801 28105 ft 374 kts 302°
2026-04-07 13:07 47.48217 23.48386 27841 ft 376 kts 302°
2026-04-07 13:07 47.49431 23.44957 27572 ft 377 kts 302°
2026-04-07 13:07 47.50647 23.41515 27303 ft 379 kts 302°
2026-04-07 13:07 47.51868 23.38055 27045 ft 380 kts 302°
2026-04-07 13:08 47.53090 23.34585 26784 ft 381 kts 302°
2026-04-07 13:08 47.54315 23.31105 26530 ft 382 kts 302°
2026-04-07 13:08 47.55541 23.27618 26276 ft 383 kts 302°
2026-04-07 13:08 47.56772 23.24112 26069 ft 384 kts 302°
2026-04-07 13:09 47.58000 23.20605 25819 ft 383 kts 302°
2026-04-07 13:09 47.59228 23.17098 25533 ft 384 kts 302°
2026-04-07 13:09 47.60459 23.13577 25285 ft 385 kts 302°
2026-04-07 13:09 47.61691 23.10049 25045 ft 385 kts 302°
2026-04-07 13:10 47.62916 23.06532 24798 ft 384 kts 301°
2026-04-07 13:10 47.64138 23.03021 24567 ft 383 kts 301°
2026-04-07 13:10 47.65356 22.99518 24335 ft 382 kts 301°
2026-04-07 13:10 47.66569 22.96023 24096 ft 381 kts 301°
2026-04-07 13:11 47.67779 22.92536 23860 ft 380 kts 301°
2026-04-07 13:11 47.68985 22.89053 23626 ft 379 kts 301°
2026-04-07 13:11 47.70188 22.85576 23350 ft 378 kts 301°
2026-04-07 13:11 47.71385 22.82110 23035 ft 378 kts 301°
2026-04-07 13:12 47.72582 22.78643 22768 ft 377 kts 301°
2026-04-07 13:12 47.73775 22.75177 22511 ft 376 kts 301°
2026-04-07 13:12 47.74965 22.71719 22241 ft 375 kts 301°
2026-04-07 13:12 47.76146 22.68280 21971 ft 373 kts 301°
2026-04-07 13:13 47.77324 22.64848 21713 ft 372 kts 301°
2026-04-07 13:13 47.78495 22.61428 21457 ft 370 kts 301°
2026-04-07 13:13 47.79646 22.58066 21203 ft 369 kts 301°
2026-04-07 13:13 47.80805 22.54674 20948 ft 368 kts 301°
2026-04-07 13:14 47.81961 22.51287 20697 ft 366 kts 301°
2026-04-07 13:14 47.83113 22.47909 20416 ft 366 kts 301°
2026-04-07 13:14 47.84264 22.44532 20166 ft 366 kts 301°
2026-04-07 13:14 47.85412 22.41158 19920 ft 365 kts 301°
2026-04-07 13:15 47.86555 22.37791 19682 ft 363 kts 301°
2026-04-07 13:15 47.87696 22.34428 19785 ft 365 kts 301°
2026-04-07 13:15 47.88837 22.31058 20393 ft 364 kts 301°
2026-04-07 13:15 47.89976 22.27692 20956 ft 364 kts 301°
2026-04-07 13:16 47.91118 22.24313 21440 ft 366 kts 301°
2026-04-07 13:16 47.92267 22.20913 21898 ft 369 kts 301°
2026-04-07 13:16 47.93422 22.17486 22380 ft 371 kts 301°
2026-04-07 13:16 47.94583 22.14040 22810 ft 374 kts 301°
2026-04-07 13:17 47.95757 22.10551 23201 ft 378 kts 301°
2026-04-07 13:17 47.96941 22.07027 23642 ft 381 kts 301°
2026-04-07 13:17 47.98128 22.03484 24038 ft 383 kts 301°
2026-04-07 13:17 47.99321 21.99920 24430 ft 385 kts 301°
2026-04-07 13:18 48.00517 21.96338 24800 ft 386 kts 301°
2026-04-07 13:18 48.01717 21.92742 25178 ft 388 kts 301°
2026-04-07 13:18 48.02922 21.89125 25538 ft 390 kts 301°
2026-04-07 13:18 48.04130 21.85494 25927 ft 390 kts 301°
2026-04-07 13:19 48.05332 21.81872 26433 ft 387 kts 301°
2026-04-07 13:19 48.06522 21.78279 26942 ft 385 kts 301°
2026-04-07 13:19 48.07712 21.74687 27242 ft 386 kts 301°
2026-04-07 13:19 48.08907 21.71077 27546 ft 388 kts 301°
2026-04-07 13:20 48.10100 21.67468 27988 ft 386 kts 301°
2026-04-07 13:20 48.11283 21.63880 28452 ft 384 kts 301°
2026-04-07 13:20 48.12461 21.60301 28881 ft 382 kts 301°
2026-04-07 13:20 48.13632 21.56739 29302 ft 381 kts 301°
2026-04-07 13:21 48.14795 21.53195 29863 ft 376 kts 301°
2026-04-07 13:21 48.15938 21.49703 30393 ft 371 kts 301°
2026-04-07 13:21 48.17074 21.46233 30687 ft 371 kts 301°
2026-04-07 13:21 48.18212 21.42763 30925 ft 372 kts 301°
2026-04-07 13:22 48.19352 21.39282 31181 ft 372 kts 301°
2026-04-07 13:22 48.20490 21.35801 31434 ft 372 kts 301°
2026-04-07 13:22 48.21624 21.32324 31673 ft 371 kts 301°
2026-04-07 13:22 48.22755 21.28847 31955 ft 370 kts 301°
2026-04-07 13:23 48.23882 21.25378 32214 ft 370 kts 301°
2026-04-07 13:23 48.24994 21.21951 32450 ft 370 kts 301°
2026-04-07 13:23 48.26117 21.18486 32681 ft 369 kts 301°
2026-04-07 13:23 48.27237 21.15027 32915 ft 369 kts 301°
2026-04-07 13:24 48.28356 21.11565 33157 ft 368 kts 301°
2026-04-07 13:24 48.29472 21.08109 33395 ft 367 kts 301°
2026-04-07 13:24 48.30585 21.04658 33574 ft 367 kts 301°
2026-04-07 13:24 48.31700 21.01197 33702 ft 369 kts 301°
2026-04-07 13:25 48.32816 20.97727 33880 ft 369 kts 301°
2026-04-07 13:25 48.33930 20.94258 34100 ft 368 kts 301°
2026-04-07 13:25 48.35041 20.90791 34259 ft 368 kts 301°
2026-04-07 13:25 48.36151 20.87323 34394 ft 368 kts 301°
2026-04-07 13:26 48.37263 20.83847 34518 ft 369 kts 301°
2026-04-07 13:26 48.38375 20.80366 34650 ft 369 kts 301°
2026-04-07 13:26 48.39487 20.76879 34791 ft 369 kts 301°
2026-04-07 13:26 48.40598 20.73390 34917 ft 370 kts 301°
2026-04-07 13:27 48.41709 20.69897 35025 ft 371 kts 301°
2026-04-07 13:27 48.43939 20.62872 35054 ft 372 kts 301°
2026-04-07 13:28 48.46166 20.55833 35052 ft 372 kts 301°
2026-04-07 13:28 48.48393 20.48792 35046 ft 372 kts 301°
2026-04-07 13:29 48.50709 20.41835 35048 ft 371 kts 302°
2026-04-07 13:29 48.53071 20.34913 35047 ft 371 kts 302°
2026-04-07 13:30 48.55428 20.27984 35036 ft 372 kts 302°
2026-04-07 13:30 48.57764 20.21069 35045 ft 372 kts 302°
2026-04-07 13:31 48.60108 20.14094 35049 ft 372 kts 302°
2026-04-07 13:31 48.62447 20.07110 35052 ft 372 kts 302°
2026-04-07 13:32 48.64782 20.00122 35054 ft 372 kts 302°
2026-04-07 13:32 48.67118 19.93115 35018 ft 372 kts 302°
2026-04-07 13:33 48.69449 19.86102 35063 ft 374 kts 302°
2026-04-07 13:33 48.72968 19.75587 35061 ft 373 kts 302°
2026-04-07 13:34 48.75317 19.68577 35071 ft 373 kts 302°
2026-04-07 13:34 48.77659 19.61564 35074 ft 373 kts 302°
2026-04-07 13:35 48.79997 19.54540 35082 ft 374 kts 302°
2026-04-07 13:35 48.82344 19.47471 35080 ft 376 kts 302°
2026-04-07 13:36 48.84297 19.41567 35089 ft 376 kts 302°
2026-04-07 13:36 48.86644 19.34462 35097 ft 376 kts 302°
2026-04-07 13:37 48.88984 19.27353 35092 ft 376 kts 302°
2026-04-07 13:37 48.91317 19.20236 35104 ft 376 kts 302°
2026-04-07 13:38 48.93653 19.13105 35108 ft 378 kts 302°
2026-04-07 13:38 48.95998 19.05923 35109 ft 379 kts 302°
2026-04-07 13:39 48.98340 18.98729 35113 ft 380 kts 302°
2026-04-07 13:39 49.00679 18.91515 35122 ft 379 kts 301°
2026-04-07 13:40 49.03012 18.84305 35114 ft 379 kts 301°
2026-04-07 13:40 49.05339 18.77098 35123 ft 380 kts 301°
2026-04-07 13:41 49.07677 18.69842 35141 ft 381 kts 301°
2026-04-07 13:41 49.10004 18.62583 35128 ft 381 kts 301°
2026-04-07 13:42 49.12330 18.55308 35136 ft 381 kts 301°
2026-04-07 13:42 49.14638 18.48076 35145 ft 381 kts 301°
2026-04-07 13:43 49.16960 18.40793 35146 ft 381 kts 301°
2026-04-07 13:43 49.19272 18.33501 35153 ft 381 kts 301°
2026-04-07 13:44 49.21579 18.26191 35152 ft 382 kts 301°
2026-04-07 13:44 49.23883 18.18880 35158 ft 381 kts 302°
2026-04-07 13:45 49.26466 18.11866 35169 ft 378 kts 305°
2026-04-07 13:45 49.29160 18.04959 35150 ft 378 kts 306°
2026-04-07 13:46 49.31878 17.98058 35162 ft 379 kts 306°
2026-04-07 13:46 49.34598 17.91128 35165 ft 379 kts 306°
2026-04-07 13:47 49.37309 17.84185 35162 ft 379 kts 305°
2026-04-07 13:47 49.40014 17.77231 35160 ft 380 kts 305°
2026-04-07 13:48 49.42718 17.70261 35168 ft 380 kts 305°
2026-04-07 13:48 49.45415 17.63293 35171 ft 379 kts 305°
2026-04-07 13:49 49.48108 17.56316 35176 ft 379 kts 305°
2026-04-07 13:49 49.50796 17.49333 35175 ft 380 kts 305°
2026-04-07 13:50 49.53484 17.42334 35185 ft 380 kts 305°
2026-04-07 13:50 49.54828 17.38827 35303 ft 380 kts 305°
2026-04-07 13:50 49.56167 17.35327 35449 ft 380 kts 305°
2026-04-07 13:51 49.57507 17.31823 35631 ft 379 kts 305°
2026-04-07 13:51 49.58841 17.28326 35725 ft 379 kts 305°
2026-04-07 13:51 49.61532 17.21267 35786 ft 384 kts 305°
2026-04-07 13:52 49.64232 17.14159 36083 ft 383 kts 305°
2026-04-07 13:52 49.66906 17.07100 36186 ft 386 kts 305°
2026-04-07 13:53 49.69631 16.99894 36195 ft 392 kts 304°
2026-04-07 13:53 49.72372 16.92616 36193 ft 391 kts 304°
2026-04-07 13:54 49.75105 16.85339 36195 ft 393 kts 304°
2026-04-07 13:54 49.77848 16.78018 36200 ft 393 kts 304°
2026-04-07 13:55 49.80586 16.70688 36201 ft 393 kts 304°
2026-04-07 13:55 49.83318 16.63354 36210 ft 393 kts 304°
2026-04-07 13:56 49.86047 16.56008 36210 ft 393 kts 304°
2026-04-07 13:56 49.88773 16.48651 36216 ft 395 kts 304°
2026-04-07 13:57 49.91512 16.41238 36214 ft 396 kts 304°
2026-04-07 13:57 49.94247 16.33812 36220 ft 396 kts 304°
2026-04-07 13:58 49.96976 16.26379 36226 ft 396 kts 304°
2026-04-07 13:58 49.99702 16.18935 36230 ft 396 kts 304°
2026-04-07 13:59 50.02423 16.11486 36231 ft 397 kts 303°
2026-04-07 13:59 50.05130 16.04052 36238 ft 398 kts 303°
2026-04-07 14:00 50.07870 15.96505 36240 ft 398 kts 303°
2026-04-07 14:00 50.10569 15.89048 36262 ft 397 kts 303°
2026-04-07 14:01 50.13280 15.81537 36264 ft 398 kts 303°
2026-04-07 14:01 50.15989 15.74012 36249 ft 398 kts 303°
2026-04-07 14:02 50.18692 15.66479 36260 ft 398 kts 303°
2026-04-07 14:02 50.21393 15.58932 36262 ft 398 kts 303°
2026-04-07 14:03 50.24088 15.51376 36260 ft 398 kts 303°
2026-04-07 14:03 50.26778 15.43813 36263 ft 398 kts 303°
2026-04-07 14:04 50.29464 15.36241 36228 ft 398 kts 303°
2026-04-07 14:04 50.32150 15.28649 36263 ft 400 kts 303°
2026-04-07 14:05 50.34837 15.21027 36272 ft 400 kts 303°
2026-04-07 14:05 50.37513 15.13411 36264 ft 399 kts 303°
2026-04-07 14:06 50.40184 15.05786 36271 ft 399 kts 303°
2026-04-07 14:06 50.42852 14.98151 36274 ft 399 kts 303°
2026-04-07 14:07 50.45517 14.90504 36273 ft 400 kts 302°
2026-04-07 14:07 50.48185 14.82822 36274 ft 401 kts 302°
2026-04-07 14:08 50.50854 14.75114 36278 ft 401 kts 302°
2026-04-07 14:08 50.53515 14.67405 36279 ft 401 kts 302°
2026-04-07 14:09 50.56153 14.59739 36285 ft 401 kts 302°
2026-04-07 14:09 50.58804 14.52014 36284 ft 401 kts 302°
2026-04-07 14:10 50.61452 14.44271 36288 ft 402 kts 302°
2026-04-07 14:10 50.64097 14.36516 36288 ft 402 kts 302°
2026-04-07 14:11 50.66739 14.28744 36288 ft 402 kts 302°
2026-04-07 14:11 50.69373 14.20971 36290 ft 402 kts 302°
2026-04-07 14:12 50.72003 14.13187 36269 ft 401 kts 302°
2026-04-07 14:12 50.74623 14.05410 36295 ft 402 kts 302°
2026-04-07 14:13 50.77240 13.97617 36296 ft 402 kts 302°
2026-04-07 14:13 50.79802 13.89761 36294 ft 404 kts 297°
2026-04-07 14:14 50.81595 13.81301 36299 ft 408 kts 291°
2026-04-07 14:14 50.83098 13.72631 36300 ft 409 kts 290°
2026-04-07 14:15 50.84537 13.63914 36299 ft 409 kts 290°
2026-04-07 14:15 50.85965 13.55259 36306 ft 409 kts 290°
2026-04-07 14:16 50.87407 13.46552 36305 ft 409 kts 290°
2026-04-07 14:16 50.88848 13.37837 36315 ft 409 kts 290°
2026-04-07 14:17 50.90284 13.29118 36317 ft 409 kts 290°
2026-04-07 14:17 50.91716 13.20378 36322 ft 411 kts 289°
2026-04-07 14:18 50.93148 13.11590 36323 ft 412 kts 289°
2026-04-07 14:18 50.94572 13.02790 36325 ft 412 kts 289°
2026-04-07 14:19 50.95991 12.93983 36320 ft 412 kts 289°
2026-04-07 14:19 50.97403 12.85173 36322 ft 412 kts 289°
2026-04-07 14:20 50.98809 12.76358 36322 ft 413 kts 289°
2026-04-07 14:20 51.00211 12.67518 36320 ft 413 kts 289°
2026-04-07 14:21 51.01606 12.58673 36321 ft 413 kts 288°
2026-04-07 14:21 51.02995 12.49819 36317 ft 413 kts 288°
2026-04-07 14:22 51.04379 12.40953 36318 ft 413 kts 288°
2026-04-07 14:22 51.05756 12.32083 36316 ft 413 kts 288°
2026-04-07 14:23 51.07126 12.23208 36331 ft 414 kts 288°
2026-04-07 14:23 51.08490 12.14318 36338 ft 414 kts 288°
2026-04-07 14:24 51.09839 12.05478 36339 ft 414 kts 288°
2026-04-07 14:24 51.11190 11.96578 36325 ft 414 kts 288°
2026-04-07 14:25 51.12317 11.89122 36329 ft 414 kts 288°
2026-04-07 14:25 51.13875 11.78746 36334 ft 415 kts 287°
2026-04-07 14:26 51.14993 11.71260 36332 ft 415 kts 287°
2026-04-07 14:26 51.16312 11.62378 36334 ft 415 kts 287°
2026-04-07 14:27 51.17634 11.53430 36334 ft 415 kts 287°
2026-04-07 14:27 51.18949 11.44479 36321 ft 415 kts 287°
2026-04-07 14:28 51.20260 11.35506 36333 ft 415 kts 287°
2026-04-07 14:28 51.21562 11.26529 36332 ft 415 kts 287°
2026-04-07 14:29 51.22857 11.17552 36330 ft 415 kts 287°
2026-04-07 14:29 51.24147 11.08560 36326 ft 416 kts 287°
2026-04-07 14:30 51.25429 10.99574 36309 ft 415 kts 286°
2026-04-07 14:30 51.26708 10.90560 36324 ft 416 kts 286°
2026-04-07 14:31 51.27979 10.81542 36327 ft 416 kts 286°
2026-04-07 14:31 51.29243 10.72514 36333 ft 416 kts 286°
2026-04-07 14:32 51.30500 10.63484 36333 ft 416 kts 286°
2026-04-07 14:32 51.31753 10.54436 36307 ft 417 kts 285°
2026-04-07 14:33 51.32992 10.45434 36340 ft 418 kts 285°
2026-04-07 14:33 51.34244 10.36279 36340 ft 419 kts 285°
2026-04-07 14:34 51.35472 10.27235 36342 ft 419 kts 285°
2026-04-07 14:34 51.36700 10.18131 36348 ft 419 kts 285°
2026-04-07 14:35 51.37927 10.08981 36312 ft 417 kts 285°
2026-04-07 14:35 51.39132 9.99957 36330 ft 418 kts 284°
2026-04-07 14:36 51.40339 9.90848 36346 ft 418 kts 284°
2026-04-07 14:36 51.41539 9.81730 36347 ft 418 kts 284°
2026-04-07 14:37 51.42732 9.72607 36336 ft 418 kts 284°
2026-04-07 14:37 51.43917 9.63485 36343 ft 418 kts 284°
2026-04-07 14:38 51.45099 9.54341 36347 ft 420 kts 283°
2026-04-07 14:38 51.46277 9.45155 36346 ft 421 kts 283°
2026-04-07 14:39 51.48029 9.31372 36338 ft 421 kts 283°
2026-04-07 14:40 51.49190 9.22173 36338 ft 421 kts 283°
2026-04-07 14:40 51.50342 9.12974 36339 ft 421 kts 283°
2026-04-07 14:41 51.51331 9.03714 36342 ft 421 kts 281°
2026-04-07 14:41 51.52173 8.94401 36344 ft 421 kts 280°
2026-04-07 14:42 51.52999 8.85083 36344 ft 421 kts 280°
2026-04-07 14:42 51.53837 8.75767 36346 ft 421 kts 280°
2026-04-07 14:43 51.54677 8.66461 36341 ft 421 kts 280°
2026-04-07 14:43 51.55515 8.57123 36348 ft 422 kts 279°
2026-04-07 14:44 51.56344 8.47782 36347 ft 422 kts 279°
2026-04-07 14:44 51.57165 8.38441 36335 ft 422 kts 279°
2026-04-07 14:45 51.57979 8.29090 36336 ft 422 kts 279°
2026-04-07 14:45 51.58786 8.19733 36326 ft 422 kts 279°
2026-04-07 14:46 51.59586 8.10370 36340 ft 423 kts 279°
2026-04-07 14:46 51.60378 8.00998 36340 ft 423 kts 279°
2026-04-07 14:47 51.61158 7.91682 36341 ft 423 kts 279°
2026-04-07 14:47 51.61936 7.82303 36344 ft 423 kts 278°
2026-04-07 14:48 51.62707 7.72917 36336 ft 423 kts 278°
2026-04-07 14:48 51.63471 7.63521 36345 ft 424 kts 278°
2026-04-07 14:49 51.64228 7.54103 36345 ft 424 kts 278°
2026-04-07 14:49 51.64979 7.44680 36335 ft 424 kts 278°
2026-04-07 14:50 51.65721 7.35257 36335 ft 424 kts 278°
2026-04-07 14:50 51.66456 7.25830 36330 ft 424 kts 277°
2026-04-07 14:51 51.67185 7.16393 36338 ft 425 kts 277°
2026-04-07 14:51 51.67905 7.06947 36338 ft 425 kts 277°
2026-04-07 14:52 51.68618 6.97499 36335 ft 425 kts 277°
2026-04-07 14:52 51.69324 6.88044 36335 ft 425 kts 277°
2026-04-07 14:53 51.70022 6.78595 36328 ft 425 kts 277°
2026-04-07 14:53 51.70709 6.69194 36333 ft 425 kts 276°
2026-04-07 14:54 51.71392 6.59724 36332 ft 425 kts 276°
2026-04-07 14:54 51.72069 6.50244 36336 ft 425 kts 276°
2026-04-07 14:55 51.72737 6.40766 36338 ft 425 kts 276°
2026-04-07 14:55 51.73399 6.31283 36340 ft 425 kts 276°
2026-04-07 14:56 51.74053 6.21800 36341 ft 425 kts 276°
2026-04-07 14:56 51.74698 6.12313 36343 ft 425 kts 276°
2026-04-07 14:57 51.75336 6.02824 36341 ft 425 kts 276°
2026-04-07 14:57 51.75967 5.93329 36339 ft 425 kts 276°
2026-04-07 14:58 51.76590 5.83838 36342 ft 425 kts 276°
2026-04-07 14:58 51.77206 5.74336 36342 ft 425 kts 275°
2026-04-07 14:59 51.77813 5.64834 36347 ft 425 kts 275°
2026-04-07 14:59 51.78413 5.55327 36320 ft 425 kts 275°
2026-04-07 15:00 51.79005 5.45820 36321 ft 425 kts 275°
2026-04-07 15:00 51.79589 5.36316 36318 ft 425 kts 275°
2026-04-07 15:01 51.80167 5.26801 36318 ft 426 kts 274°
2026-04-07 15:01 51.80738 5.17261 36310 ft 426 kts 274°
2026-04-07 15:02 51.81297 5.07786 36310 ft 426 kts 274°
2026-04-07 15:02 51.81853 4.98241 36306 ft 427 kts 274°
2026-04-07 15:03 51.82400 4.88701 36305 ft 426 kts 274°
2026-04-07 15:03 51.82941 4.79146 36310 ft 427 kts 274°
2026-04-07 15:04 51.83487 4.69585 36308 ft 427 kts 275°
2026-04-07 15:04 51.84276 4.60053 36316 ft 428 kts 277°
2026-04-07 15:05 51.85184 4.50537 36319 ft 428 kts 277°
2026-04-07 15:05 51.86079 4.41021 36319 ft 428 kts 277°
2026-04-07 15:06 51.86944 4.31495 36318 ft 428 kts 277°
2026-04-07 15:06 51.87790 4.21967 36316 ft 428 kts 276°
2026-04-07 15:07 51.88626 4.12437 36313 ft 428 kts 276°
2026-04-07 15:07 51.89456 4.02897 36311 ft 428 kts 276°
2026-04-07 15:08 51.90279 3.93359 36306 ft 428 kts 276°
2026-04-07 15:08 51.91095 3.83813 36309 ft 429 kts 276°
2026-04-07 15:09 51.91905 3.74229 36308 ft 429 kts 276°
2026-04-07 15:09 51.92708 3.64642 36311 ft 430 kts 276°
2026-04-07 15:10 51.93498 3.55116 36311 ft 430 kts 276°
2026-04-07 15:10 51.94285 3.45521 36311 ft 430 kts 276°
2026-04-07 15:11 51.95066 3.35915 36316 ft 430 kts 275°
2026-04-07 15:11 51.95839 3.26290 36314 ft 431 kts 275°
2026-04-07 15:12 51.96363 3.16632 36314 ft 428 kts 266°
2026-04-07 15:12 51.95944 3.07008 36300 ft 428 kts 263°
2026-04-07 15:13 51.95325 2.97409 36296 ft 428 kts 262°
2026-04-07 15:13 51.94664 2.87815 36293 ft 428 kts 262°
2026-04-07 15:14 51.94008 2.78217 36291 ft 429 kts 262°
2026-04-07 15:14 51.93466 2.70237 36290 ft 429 kts 262°
2026-04-07 15:15 51.92813 2.60676 35573 ft 421 kts 262°
2026-04-07 15:15 51.92488 2.55947 34337 ft 425 kts 262°
2026-04-07 15:15 51.92155 2.51156 32811 ft 431 kts 262°
2026-04-07 15:15 51.91816 2.46312 31340 ft 436 kts 262°
2026-04-07 15:16 51.91471 2.41398 29799 ft 440 kts 261°
2026-04-07 15:16 51.91122 2.36449 28043 ft 444 kts 262°
2026-04-07 15:16 51.90815 2.31453 26288 ft 449 kts 264°
2026-04-07 15:16 51.90662 2.26382 24541 ft 453 kts 266°
2026-04-07 15:17 51.90551 2.21277 22766 ft 454 kts 266°
2026-04-07 15:17 51.90442 2.16188 21068 ft 450 kts 266°
2026-04-07 15:17 51.90330 2.11147 19650 ft 444 kts 265°
2026-04-07 15:17 51.90215 2.06216 18896 ft 434 kts 265°
2026-04-07 15:18 51.90100 2.01391 18444 ft 423 kts 266°
2026-04-07 15:18 51.89983 1.96678 18295 ft 420 kts 265°
2026-04-07 15:18 51.90060 1.91931 18197 ft 423 kts 276°
2026-04-07 15:18 51.90856 1.87408 18046 ft 427 kts 292°
2026-04-07 15:19 51.92447 1.83331 17939 ft 430 kts 306°
2026-04-07 15:19 51.94370 1.79521 17804 ft 431 kts 308°
2026-04-07 15:19 51.96285 1.75871 17654 ft 430 kts 309°
2026-04-07 15:19 51.98220 1.72182 17527 ft 428 kts 308°
2026-04-07 15:20 52.00137 1.68491 17394 ft 428 kts 308°
2026-04-07 15:20 52.02050 1.64799 17260 ft 426 kts 308°
2026-04-07 15:20 52.03948 1.61117 17124 ft 425 kts 308°
2026-04-07 15:20 52.05841 1.57434 16993 ft 424 kts 308°
2026-04-07 15:21 52.07724 1.53763 16869 ft 423 kts 308°
2026-04-07 15:21 52.09605 1.50081 16738 ft 423 kts 307°
2026-04-07 15:21 52.11488 1.46399 16601 ft 423 kts 307°
2026-04-07 15:21 52.13371 1.42710 16471 ft 424 kts 308°
2026-04-07 15:22 52.15139 1.38908 16334 ft 419 kts 298°
2026-04-07 15:22 52.16296 1.34607 16201 ft 413 kts 282°
2026-04-07 15:22 52.16834 1.30037 16093 ft 410 kts 276°
2026-04-07 15:22 52.17209 1.25438 15949 ft 410 kts 275°
2026-04-07 15:23 52.17558 1.20839 15827 ft 409 kts 275°
2026-04-07 15:23 52.17906 1.16247 15694 ft 408 kts 274°
2026-04-07 15:23 52.18256 1.11666 15565 ft 407 kts 274°
2026-04-07 15:23 52.18606 1.07091 15439 ft 406 kts 274°
2026-04-07 15:24 52.18956 1.02530 15316 ft 406 kts 275°
2026-04-07 15:24 52.19305 0.97968 15194 ft 405 kts 274°
2026-04-07 15:24 52.19654 0.93413 15045 ft 404 kts 275°
2026-04-07 15:24 52.20001 0.88870 14914 ft 403 kts 274°
2026-04-07 15:25 52.20343 0.84358 14790 ft 395 kts 275°
2026-04-07 15:25 52.20673 0.80019 14664 ft 376 kts 273°
2026-04-07 15:25 52.20986 0.75885 14537 ft 358 kts 274°
2026-04-07 15:25 52.21280 0.71955 14425 ft 341 kts 274°
2026-04-07 15:26 52.21560 0.68204 14313 ft 325 kts 272°
2026-04-07 15:26 52.21825 0.64641 14241 ft 310 kts 272°
2026-04-07 15:26 52.22081 0.61180 14079 ft 305 kts 273°
2026-04-07 15:26 52.22325 0.57784 13914 ft 306 kts 272°
2026-04-07 15:27 52.22573 0.54340 13770 ft 305 kts 272°
2026-04-07 15:27 52.22820 0.50902 13631 ft 305 kts 274°
2026-04-07 15:27 52.23067 0.47466 13494 ft 304 kts 272°
2026-04-07 15:27 52.23314 0.44045 13341 ft 304 kts 274°
2026-04-07 15:28 52.23564 0.40619 13205 ft 304 kts 273°
2026-04-07 15:28 52.23809 0.37200 13069 ft 303 kts 273°
2026-04-07 15:28 52.24052 0.33793 12930 ft 302 kts 273°
2026-04-07 15:28 52.24294 0.30388 12789 ft 302 kts 274°
2026-04-07 15:29 52.24535 0.26992 12646 ft 301 kts 272°
2026-04-07 15:29 52.24774 0.23604 12510 ft 300 kts 272°
2026-04-07 15:29 52.25011 0.20228 12367 ft 299 kts 272°
2026-04-07 15:29 52.25247 0.16857 12233 ft 299 kts 273°
2026-04-07 15:30 52.25478 0.13494 12098 ft 298 kts 272°
2026-04-07 15:30 52.25706 0.10142 11960 ft 297 kts 273°
2026-04-07 15:30 52.25938 0.06790 11822 ft 297 kts 273°
2026-04-07 15:30 52.26169 0.03474 11684 ft 288 kts 271°
2026-04-07 15:31 52.26390 0.00304 11558 ft 275 kts 271°
2026-04-07 15:31 52.26600 -0.02733 11360 ft 265 kts 272°
2026-04-07 15:31 52.26861 -0.05705 11272 ft 263 kts 277°
2026-04-07 15:31 52.27303 -0.08589 11174 ft 261 kts 280°
2026-04-07 15:32 52.27795 -0.11450 11035 ft 262 kts 281°
2026-04-07 15:32 52.28297 -0.14310 10907 ft 262 kts 281°
2026-04-07 15:32 52.28795 -0.17161 10792 ft 261 kts 281°
2026-04-07 15:32 52.29290 -0.20004 10654 ft 260 kts 281°
2026-04-07 15:33 52.29784 -0.22845 10547 ft 260 kts 281°
2026-04-07 15:33 52.30273 -0.25687 10425 ft 260 kts 281°
2026-04-07 15:33 52.30763 -0.28520 10304 ft 259 kts 281°
2026-04-07 15:33 52.31251 -0.31345 10188 ft 258 kts 281°
2026-04-07 15:34 52.31738 -0.34170 10060 ft 258 kts 280°
2026-04-07 15:34 52.32221 -0.36990 9932 ft 257 kts 281°
2026-04-07 15:34 52.32702 -0.39801 9813 ft 257 kts 282°
2026-04-07 15:34 52.33426 -0.42485 9690 ft 263 kts 301°
2026-04-07 15:35 52.34822 -0.44411 9569 ft 269 kts 334°
2026-04-07 15:35 52.36664 -0.44854 9446 ft 272 kts
2026-04-07 15:35 52.38368 -0.43610 9323 ft 270 kts 43°
2026-04-07 15:35 52.39397 -0.41139 9199 ft 262 kts 76°
2026-04-07 15:36 52.39514 -0.38259 9084 ft 252 kts 107°
2026-04-07 15:36 52.38785 -0.35762 8990 ft 241 kts 134°
2026-04-07 15:36 52.37466 -0.34172 8932 ft 233 kts 161°
2026-04-07 15:36 52.35894 -0.33744 8847 ft 231 kts 182°
2026-04-07 15:37 52.34274 -0.33740 8651 ft 233 kts 175°
2026-04-07 15:37 52.32747 -0.32917 8525 ft 234 kts 150°
2026-04-07 15:37 52.31632 -0.31017 8417 ft 242 kts 122°
2026-04-07 15:37 52.31040 -0.28371 8301 ft 247 kts 109°
2026-04-07 15:38 52.30524 -0.25735 8231 ft 245 kts 120°
2026-04-07 15:38 52.29505 -0.23585 8229 ft 239 kts 145°
2026-04-07 15:38 52.28020 -0.22456 8232 ft 236 kts 166°
2026-04-07 15:38 52.26416 -0.21901 8230 ft 236 kts 171°
2026-04-07 15:39 52.24798 -0.21456 8228 ft 236 kts 172°
2026-04-07 15:39 52.23187 -0.21021 8224 ft 234 kts 171°
2026-04-07 15:39 52.21579 -0.20578 8234 ft 234 kts 172°
2026-04-07 15:39 52.19987 -0.20128 8228 ft 231 kts 171°
2026-04-07 15:40 52.18410 -0.19652 8006 ft 231 kts 170°
2026-04-07 15:40 52.16812 -0.19156 7492 ft 235 kts 170°
2026-04-07 15:40 52.15213 -0.18654 7120 ft 232 kts 170°
2026-04-07 15:40 52.13636 -0.18159 6689 ft 231 kts 169°
2026-04-07 15:41 52.12058 -0.17697 6287 ft 230 kts 174°
2026-04-07 15:41 52.10472 -0.17847 6074 ft 229 kts 196°
2026-04-07 15:41 52.09104 -0.19126 5924 ft 230 kts 220°
2026-04-07 15:41 52.07975 -0.21003 5774 ft 233 kts 225°
2026-04-07 15:42 52.06905 -0.22985 5484 ft 233 kts 227°
2026-04-07 15:42 52.05838 -0.24979 5252 ft 234 kts 226°
2026-04-07 15:42 52.03702 -0.28923 5012 ft 232 kts 226°
2026-04-07 15:43 52.02631 -0.30882 4997 ft 231 kts 226°
2026-04-07 15:43 52.01564 -0.32827 4996 ft 231 kts 226°
2026-04-07 15:43 52.00499 -0.34776 4996 ft 231 kts 228°
2026-04-07 15:43 51.99630 -0.36971 4993 ft 234 kts 244°
2026-04-07 15:44 51.99079 -0.39461 5000 ft 235 kts 251°
2026-04-07 15:44 51.98612 -0.42005 4991 ft 235 kts 252°
2026-04-07 15:44 51.98086 -0.44512 4991 ft 234 kts 242°
2026-04-07 15:44 51.97231 -0.46732 4990 ft 231 kts 231°
2026-04-07 15:45 51.96252 -0.48799 4998 ft 232 kts 229°
2026-04-07 15:45 51.95249 -0.50850 4993 ft 232 kts 229°
2026-04-07 15:45 51.94245 -0.52900 4993 ft 233 kts 230°
2026-04-07 15:45 51.93240 -0.54961 4996 ft 233 kts 229°
2026-04-07 15:46 51.92238 -0.57015 4996 ft 231 kts 229°
2026-04-07 15:46 51.91252 -0.59037 4997 ft 232 kts 229°
2026-04-07 15:46 51.90315 -0.61155 4992 ft 233 kts 238°
2026-04-07 15:46 51.89704 -0.63594 4984 ft 235 kts 250°
2026-04-07 15:47 51.89240 -0.66140 4995 ft 236 kts 251°
2026-04-07 15:47 51.88805 -0.68677 4990 ft 229 kts 252°
2026-04-07 15:47 51.88385 -0.71123 4993 ft 224 kts 252°
2026-04-07 15:47 51.87871 -0.73462 4899 ft 218 kts 237°
2026-04-07 15:48 51.86814 -0.75075 4636 ft 208 kts 201°
2026-04-07 15:48 51.85430 -0.75280 4465 ft 195 kts 171°
2026-04-07 15:48 51.84144 -0.74796 4199 ft 186 kts 164°
2026-04-07 15:48 51.82938 -0.74096 3987 ft 184 kts 153°
2026-04-07 15:49 51.82063 -0.72658 3740 ft 186 kts 112°
2026-04-07 15:49 51.81842 -0.70589 3545 ft 189 kts 95°
2026-04-07 15:49 51.82015 -0.68455 3499 ft 195 kts 83°
2026-04-07 15:49 51.82371 -0.66328 3488 ft 197 kts 81°
2026-04-07 15:50 51.82748 -0.64188 3494 ft 198 kts 81°
2026-04-07 15:50 51.83119 -0.62044 3480 ft 197 kts 80°
2026-04-07 15:50 51.83478 -0.59915 3283 ft 196 kts 81°
2026-04-07 15:50 51.83840 -0.57801 3005 ft 191 kts 81°
2026-04-07 15:51 51.84189 -0.55806 2757 ft 176 kts 81°
2026-04-07 15:51 51.84501 -0.54010 2528 ft 159 kts 82°
2026-04-07 15:51 51.84793 -0.52300 2309 ft 156 kts 82°
2026-04-07 15:51 51.85083 -0.50621 2095 ft 154 kts 81°
2026-04-07 15:52 51.85369 -0.48970 1891 ft 149 kts 81°
2026-04-07 15:52 51.85637 -0.47426 1700 ft 137 kts 81°
2026-04-07 15:52 51.85889 -0.45957 1494 ft 135 kts 79°
2026-04-07 15:52 51.86151 -0.44483 1332 ft 137 kts 81°
2026-04-07 15:53 51.86414 -0.43012 1138 ft 135 kts 80°
2026-04-07 15:53 51.86646 -0.41556 942 ft 135 kts 81°
2026-04-07 15:53 51.86903 -0.40098 747 ft 135 kts 76°
2026-04-07 15:53 51.87145 -0.38659 578 ft 131 kts 78°
2026-04-07 15:54 51.87389 -0.37281 569 ft 121 kts 80°
2026-04-07 15:54 51.87624 -0.35803 1036 ft 139 kts 81°
2026-04-07 15:54 51.87877 -0.34338 1952 ft 133 kts 81°
2026-04-07 15:54 51.88141 -0.32816 2545 ft 155 kts 82°
2026-04-07 15:55 51.88465 -0.30974 2906 ft 185 kts 76°
2026-04-07 15:55 51.89240 -0.29046 3070 ft 229 kts 43°
2026-04-07 15:55 51.90794 -0.28100 3399 ft 252 kts
2026-04-07 15:55 51.92478 -0.28791 3490 ft 251 kts 326°
2026-04-07 15:56 51.93582 -0.30886 3500 ft 245 kts 291°
2026-04-07 15:56 51.94134 -0.33443 3494 ft 243 kts 277°
2026-04-07 15:56 51.94194 -0.36124 3488 ft 237 kts 259°
2026-04-07 15:56 51.93906 -0.38742 3497 ft 235 kts 253°
2026-04-07 15:57 51.93524 -0.41310 3493 ft 234 kts 250°
2026-04-07 15:57 51.93108 -0.43859 3491 ft 234 kts 250°
2026-04-07 15:57 51.92696 -0.46324 3504 ft 218 kts 250°
2026-04-07 15:57 51.92306 -0.48637 3507 ft 210 kts 249°
2026-04-07 15:58 51.91912 -0.50923 3496 ft 211 kts 250°
2026-04-07 15:58 51.91519 -0.53219 3238 ft 213 kts 249°
2026-04-07 15:58 51.91120 -0.55528 2799 ft 212 kts 249°
2026-04-07 15:58 51.90727 -0.57822 2535 ft 211 kts 248°
2026-04-07 15:59 51.90252 -0.60057 2494 ft 205 kts 237°
2026-04-07 15:59 51.89456 -0.61739 2462 ft 174 kts 213°
2026-04-07 15:59 51.88476 -0.62611 2254 ft 152 kts 187°
2026-04-07 15:59 51.87475 -0.62665 2024 ft 140 kts 161°
2026-04-07 16:00 51.86535 -0.62193 1998 ft 143 kts 159°
2026-04-07 16:00 51.85568 -0.61785 1989 ft 143 kts 160°
2026-04-07 16:00 51.84604 -0.61393 1987 ft 142 kts 158°
2026-04-07 16:00 51.83739 -0.60642 1999 ft 142 kts 143°
2026-04-07 16:01 51.83265 -0.59294 1982 ft 155 kts 94°
2026-04-07 16:01 51.83636 -0.57642 1994 ft 153 kts 70°
2026-04-07 16:01 51.84060 -0.56174 1996 ft 138 kts 75°
2026-04-07 16:01 51.84371 -0.54729 1991 ft 137 kts 80°
2026-04-07 16:02 51.84628 -0.53249 2008 ft 136 kts 82°
2026-04-07 16:02 51.84881 -0.51771 1989 ft 137 kts 81°
2026-04-07 16:02 51.85139 -0.50283 1988 ft 137 kts 81°
2026-04-07 16:02 51.85310 -0.49301 1949 ft 137 kts 81°
2026-04-07 16:03 51.85568 -0.47816 1763 ft 136 kts 81°
2026-04-07 16:03 51.85823 -0.46341 1571 ft 136 kts 81°
2026-04-07 16:03 51.86077 -0.44867 1378 ft 136 kts 81°
2026-04-07 16:03 51.86325 -0.43397 1178 ft 135 kts 80°
2026-04-07 16:04 51.86578 -0.41942 967 ft 135 kts 76°
2026-04-07 16:04 51.86837 -0.40489 811 ft 135 kts 81°
2026-04-07 16:04 51.87090 -0.39026 651 ft 134 kts 78°
2026-04-07 16:04 51.87334 -0.37628 535 ft 122 kts 80°
2026-04-07 16:05 51.87511 -0.36564 528 ft 60 kts 74°
2026-04-07 16:05 51.87564 -0.36253 523 ft 19 kts 75°
2026-04-07 16:05 51.87601 -0.36043 518 ft 12 kts 74°
2026-04-07 16:05 51.87634 -0.35928 519 ft 11 kts 38°
2026-04-07 16:06 51.87703 -0.35934 519 ft 10 kts 343°
2026-04-07 16:06 51.87762 -0.35976 519 ft 9 kts 320°
2026-04-07 16:06 51.87784 -0.36052 521 ft 6 kts 276°
2026-04-07 16:06 51.87777 -0.36115 521 ft 6 kts 255°
2026-04-07 16:07 51.87766 -0.36178 521 ft 6 kts 255°
2026-04-07 16:07 51.87754 -0.36252 521 ft 7 kts 255°
2026-04-07 16:07 51.87739 -0.36335 521 ft 8 kts 253°
2026-04-07 16:07 51.87725 -0.36417 522 ft 7 kts 254°
2026-04-07 16:08 51.87712 -0.36491 523 ft 7 kts 255°
2026-04-07 16:08 51.87693 -0.36603 524 ft 12 kts 255°
2026-04-07 16:08 51.87672 -0.36724 525 ft 11 kts 254°
2026-04-07 16:08 51.87666 -0.36826 527 ft 9 kts 293°
2026-04-07 16:09 51.87734 -0.36882 521 ft 14 kts 341°
2026-04-07 16:09 51.87830 -0.36960 515 ft 16 kts 291°
2026-04-07 16:09 51.87876 -0.37057 513 ft 13 kts 342°
2026-04-07 16:09 51.87966 -0.37104 512 ft 14 kts 342°
2026-04-07 16:10 51.88029 -0.37144 511 ft 8 kts 319°
2026-04-07 16:10 51.88039 -0.37227 511 ft 8 kts 254°
2026-04-07 16:10 51.88021 -0.37315 511 ft 9 kts 252°
2026-04-07 16:10 51.88012 -0.37360 511 ft 3 kts 251°
2026-04-07 16:11 51.88006 -0.37398 511 ft 3 kts 272°
2026-04-07 16:11 51.88017 -0.37419 511 ft 3 kts 323°
2026-04-07 16:11 51.88036 -0.37431 511 ft 3 kts 343°
2026-04-07 16:11 51.88044 -0.37435 511 ft 1 kts 342°
2026-04-07 16:12 51.88053 -0.37439 511 ft 2 kts 342°
2026-04-07 16:12 51.88063 -0.37445 511 ft 1 kts 342°
2026-04-07 16:12 51.88064 -0.37446 511 ft 0 kts 342°